createdAt,value
2023-04-16T00:02:04.168Z,69.84
2023-04-16T00:04:31.293Z,69.63
2023-04-16T00:06:58.290Z,69.78
2023-04-16T00:09:25.308Z,69.89
2023-04-16T00:11:52.341Z,69.94
2023-04-16T00:14:19.657Z,69.39
2023-04-16T00:16:46.930Z,70.07
2023-04-16T00:19:13.850Z,70.57
2023-04-16T00:21:40.714Z,70.55
2023-04-16T00:24:07.688Z,70.47
2023-04-16T00:26:34.703Z,69.46
2023-04-16T00:29:01.870Z,68.52
2023-04-16T00:31:30.720Z,67.81
2023-04-16T00:33:58.698Z,67.11
2023-04-16T00:36:27.513Z,68.09
2023-04-16T00:38:55.776Z,68.82
2023-04-16T00:41:26.461Z,68.29
2023-04-16T00:43:53.488Z,69.37
2023-04-16T00:46:23.550Z,69.89
2023-04-16T00:48:52.518Z,69.03
2023-04-16T00:51:21.470Z,69.19
2023-04-16T00:53:48.752Z,69.83
2023-04-16T00:56:17.713Z,70.09
2023-04-16T00:58:45.026Z,70.16
2023-04-16T01:03:53.327Z,69.93
2023-04-16T01:06:20.914Z,70.29
2023-04-16T01:08:48.789Z,71.42
2023-04-16T01:11:16.573Z,72.43
2023-04-16T01:13:43.598Z,71.78
2023-04-16T01:16:12.484Z,71.71
2023-04-16T01:18:39.794Z,70.50
2023-04-16T01:21:07.172Z,71.26
2023-04-16T01:23:34.210Z,72.87
2023-04-16T01:26:01.221Z,70.84
2023-04-16T01:28:28.062Z,71.92
2023-04-16T01:30:54.990Z,72.50
2023-04-16T01:33:22.076Z,71.55
2023-04-16T01:35:49.059Z,71.66
2023-04-16T01:38:15.968Z,70.62
2023-04-16T01:40:42.820Z,71.35
2023-04-16T01:43:09.662Z,71.54
2023-04-16T01:45:36.701Z,71.17
2023-04-16T01:48:04.542Z,71.86
2023-04-16T01:50:32.018Z,71.92
2023-04-16T01:52:58.893Z,72.76
2023-04-16T01:55:26.981Z,74.33
2023-04-16T01:57:53.820Z,74.75
2023-04-16T02:00:20.691Z,73.50
2023-04-16T02:02:49.458Z,73.31
2023-04-16T02:05:16.781Z,73.59
2023-04-16T02:07:43.658Z,74.10
2023-04-16T02:10:10.895Z,73.61
2023-04-16T02:12:37.796Z,73.10
2023-04-16T02:15:05.471Z,72.44
2023-04-16T02:17:32.484Z,71.02
2023-04-16T02:19:59.408Z,70.92
2023-04-16T02:22:26.245Z,71.56
2023-04-16T02:24:53.118Z,71.66
2023-04-16T02:27:19.917Z,71.39
2023-04-16T02:29:46.821Z,71.27
2023-04-16T02:32:13.949Z,71.59
2023-04-16T02:34:41.763Z,71.38
2023-04-16T02:37:08.600Z,70.71
2023-04-16T02:39:35.546Z,71.23
2023-04-16T02:42:02.938Z,70.56
2023-04-16T02:44:29.879Z,70.82
2023-04-16T02:46:56.730Z,70.77
2023-04-16T02:49:23.655Z,71.80
2023-04-16T02:51:50.609Z,71.05
2023-04-16T02:54:17.528Z,70.54
2023-04-16T02:56:44.361Z,70.26
2023-04-16T02:59:11.344Z,69.98
2023-04-16T03:01:38.412Z,71.27
2023-04-16T03:04:05.675Z,70.30
2023-04-16T03:06:32.807Z,70.63
2023-04-16T03:08:59.656Z,70.46
2023-04-16T03:11:26.661Z,70.88
2023-04-16T03:13:53.995Z,71.88
2023-04-16T03:16:20.963Z,72.14
2023-04-16T03:18:47.831Z,72.43
2023-04-16T03:21:14.729Z,72.16
2023-04-16T03:23:41.738Z,73.41
2023-04-16T03:26:08.621Z,74.63
2023-04-16T03:28:35.520Z,74.74
2023-04-16T03:31:02.395Z,74.17
2023-04-16T03:33:29.474Z,75.01
2023-04-16T03:35:57.466Z,76.37
2023-04-16T03:38:26.258Z,76.33
2023-04-16T03:40:53.122Z,76.08
2023-04-16T03:43:20.079Z,75.99
2023-04-16T03:45:47.928Z,75.99
2023-04-16T03:48:16.050Z,76.78
2023-04-16T03:50:47.071Z,76.58
2023-04-16T03:53:14.217Z,76.32
2023-04-16T03:55:44.327Z,77.59
2023-04-16T03:58:12.538Z,77.38
2023-04-16T04:00:42.599Z,78.22
2023-04-16T04:03:10.706Z,78.21
2023-04-16T04:05:41.389Z,77.19
2023-04-16T04:08:08.990Z,78.10
2023-04-16T04:10:36.376Z,77.79
2023-04-16T04:13:04.533Z,77.41
2023-04-16T04:15:31.954Z,76.62
2023-04-16T04:17:59.844Z,77.24
2023-04-16T04:20:26.858Z,77.66
2023-04-16T04:22:53.670Z,77.97
2023-04-16T04:25:20.501Z,76.51
2023-04-16T04:27:47.416Z,76.51
2023-04-16T04:30:14.318Z,77.17
2023-04-16T04:32:41.173Z,74.90
2023-04-16T04:35:08.390Z,74.63
2023-04-16T04:37:35.289Z,74.00
2023-04-16T04:40:02.169Z,74.24
2023-04-16T04:42:29.037Z,73.30
2023-04-16T04:44:56.136Z,73.31
2023-04-16T04:47:23.061Z,72.61
2023-04-16T04:49:49.877Z,72.44
2023-04-16T04:52:16.730Z,71.57
2023-04-16T04:54:43.517Z,71.65
2023-04-16T04:57:10.308Z,72.70
2023-04-16T04:59:37.177Z,72.57
2023-04-16T05:02:04.209Z,70.12
2023-04-16T05:04:31.510Z,69.01
2023-04-16T05:06:58.507Z,69.00
2023-04-16T05:09:25.487Z,69.36
2023-04-16T05:11:52.499Z,69.68
2023-04-16T05:14:19.451Z,69.54
2023-04-16T05:16:46.386Z,68.23
2023-04-16T05:19:13.410Z,65.92
2023-04-16T05:21:40.461Z,64.35
2023-04-16T05:24:07.343Z,63.79
2023-04-16T05:26:34.170Z,64.75
2023-04-16T05:29:01.278Z,64.46
2023-04-16T05:31:28.132Z,64.38
2023-04-16T05:33:54.934Z,64.43
2023-04-16T05:36:21.751Z,65.57
2023-04-16T05:38:48.602Z,66.42
2023-04-16T05:41:15.757Z,65.78
2023-04-16T05:43:42.632Z,65.55
2023-04-16T05:46:09.482Z,66.31
2023-04-16T05:48:36.366Z,66.98
2023-04-16T05:51:03.407Z,65.96
2023-04-16T05:53:30.283Z,66.68
2023-04-16T05:55:57.138Z,69.22
2023-04-16T05:58:24.006Z,67.76
2023-04-16T06:00:51.452Z,67.34
2023-04-16T06:03:18.388Z,67.22
2023-04-16T06:05:45.386Z,66.92
2023-04-16T06:08:12.193Z,67.20
2023-04-16T06:10:39.510Z,65.71
2023-04-16T06:13:06.392Z,66.63
2023-04-16T06:15:33.210Z,68.68
2023-04-16T06:18:01.044Z,67.30
2023-04-16T06:20:28.137Z,65.46
2023-04-16T06:22:56.178Z,66.13
2023-04-16T06:25:23.188Z,66.71
2023-04-16T06:27:50.087Z,66.65
2023-04-16T06:30:17.091Z,66.16
2023-04-16T06:32:44.622Z,65.79
2023-04-16T06:35:11.773Z,65.67
2023-04-16T06:37:38.839Z,65.02
2023-04-16T06:40:06.377Z,62.91
2023-04-16T06:42:33.378Z,60.99
2023-04-16T06:45:00.817Z,60.25
2023-04-16T06:47:27.670Z,61.03
2023-04-16T06:49:54.565Z,61.74
2023-04-16T06:52:21.364Z,60.40
2023-04-16T06:54:48.827Z,58.94
2023-04-16T06:57:16.434Z,57.88
2023-04-16T06:59:43.245Z,59.23
2023-04-16T07:02:11.007Z,57.04
2023-04-16T07:04:37.989Z,54.29
2023-04-16T07:07:04.829Z,54.95
2023-04-16T07:09:31.644Z,54.34
2023-04-16T07:11:58.561Z,52.67
2023-04-16T07:14:25.500Z,52.49
2023-04-16T07:16:52.332Z,51.83
2023-04-16T07:19:19.306Z,49.81
2023-04-16T07:21:46.743Z,47.07
2023-04-16T07:24:13.964Z,45.93
2023-04-16T07:26:41.208Z,45.29
2023-04-16T07:29:08.453Z,43.83
2023-04-16T07:31:35.681Z,45.58
2023-04-16T07:34:02.664Z,43.48
2023-04-16T07:36:29.541Z,44.25
2023-04-16T07:38:56.525Z,44.46
2023-04-16T07:41:23.882Z,42.34
2023-04-16T07:43:51.069Z,42.78
2023-04-16T07:46:17.946Z,42.94
2023-04-16T07:48:44.846Z,42.54
2023-04-16T07:51:11.781Z,38.39
2023-04-16T07:53:38.606Z,40.09
2023-04-16T07:56:05.753Z,37.11
2023-04-16T07:58:32.566Z,37.01
2023-04-16T08:00:59.479Z,37.99
2023-04-16T08:03:26.765Z,40.80
2023-04-16T08:05:53.778Z,36.00
2023-04-16T08:08:20.652Z,35.61
2023-04-16T08:10:47.639Z,35.63
2023-04-16T08:13:14.439Z,35.89
2023-04-16T08:15:41.622Z,33.84
2023-04-16T08:18:13.128Z,35.26
2023-04-16T08:20:39.970Z,34.64
2023-04-16T08:23:06.873Z,34.49
2023-04-16T08:25:33.831Z,33.39
2023-04-16T08:28:00.891Z,33.18
2023-04-16T08:30:28.771Z,32.70
2023-04-16T08:32:55.810Z,32.95
2023-04-16T08:35:23.246Z,32.96
2023-04-16T08:37:50.061Z,32.63
2023-04-16T08:40:17.430Z,33.97
2023-04-16T08:42:54.542Z,31.57
2023-04-16T08:45:21.660Z,31.79
2023-04-16T08:47:50.673Z,32.78
2023-04-16T08:50:22.938Z,31.44
2023-04-16T08:52:53.884Z,32.31
2023-04-16T08:55:31.107Z,33.00
2023-04-16T08:58:02.190Z,34.03
2023-04-16T09:00:31.827Z,32.70
2023-04-16T09:02:59.208Z,33.67
2023-04-16T09:05:27.932Z,32.54
2023-04-16T09:07:54.876Z,33.17
2023-04-16T09:10:22.337Z,33.45
2023-04-16T09:12:49.199Z,33.74
2023-04-16T09:15:16.001Z,34.79
2023-04-16T09:17:42.890Z,33.99
2023-04-16T09:20:11.279Z,32.00
2023-04-16T09:22:40.152Z,31.96
2023-04-16T09:25:07.749Z,30.61
2023-04-16T09:27:34.618Z,33.00
2023-04-16T09:30:01.605Z,32.50
2023-04-16T09:32:29.359Z,32.37
2023-04-16T09:35:01.269Z,32.17
2023-04-16T09:37:31.660Z,32.81
2023-04-16T09:40:04.952Z,33.12
2023-04-16T09:42:34.364Z,32.61
2023-04-16T09:45:03.483Z,33.22
2023-04-16T09:47:43.257Z,32.02
2023-04-16T09:50:17.728Z,30.98
2023-04-16T09:52:48.722Z,33.45
2023-04-16T09:55:15.606Z,31.21
2023-04-16T09:57:42.592Z,30.86
2023-04-16T10:00:10.706Z,32.83
2023-04-16T10:02:42.142Z,33.09
2023-04-16T10:05:09.811Z,33.47
2023-04-16T10:07:37.741Z,32.48
2023-04-16T10:10:05.086Z,31.51
2023-04-16T10:12:33.058Z,31.62
2023-04-16T10:15:00.059Z,31.30
2023-04-16T10:17:30.202Z,30.85
2023-04-16T10:19:58.548Z,29.28
2023-04-16T10:22:26.697Z,30.04
2023-04-16T10:24:54.279Z,31.56
2023-04-16T10:27:21.433Z,30.58
2023-04-16T10:29:49.162Z,29.55
2023-04-16T10:32:18.424Z,30.05
2023-04-16T10:34:45.793Z,32.24
2023-04-16T10:37:12.877Z,31.99
2023-04-16T10:39:39.749Z,32.54
2023-04-16T10:42:13.598Z,32.66
2023-04-16T10:44:43.458Z,31.63
2023-04-16T10:47:13.180Z,31.95
2023-04-16T10:49:40.761Z,32.33
2023-04-16T10:52:12.660Z,32.88
2023-04-16T10:54:40.874Z,32.93
2023-04-16T10:57:12.365Z,33.53
2023-04-16T10:59:43.317Z,31.84
2023-04-16T11:02:18.370Z,32.50
2023-04-16T11:04:49.524Z,31.47
2023-04-16T11:07:21.637Z,31.54
2023-04-16T11:10:04.445Z,31.79
2023-04-16T11:12:34.362Z,32.29
2023-04-16T11:15:02.853Z,32.90
2023-04-16T11:17:38.154Z,33.59
2023-04-16T11:20:20.975Z,33.59
2023-04-16T11:22:55.785Z,32.86
2023-04-16T11:25:29.637Z,32.62
2023-04-16T11:27:59.065Z,33.00
2023-04-16T11:30:31.123Z,33.46
2023-04-16T11:32:58.149Z,33.57
2023-04-16T11:35:25.370Z,33.72
2023-04-16T11:37:56.628Z,33.83
2023-04-16T11:40:23.683Z,33.82
2023-04-16T11:42:50.903Z,34.00
2023-04-16T11:45:19.545Z,33.74
2023-04-16T11:47:55.591Z,33.75
2023-04-16T11:50:27.350Z,33.22
2023-04-16T11:53:03.354Z,33.18
2023-04-16T11:55:30.459Z,33.93
2023-04-16T11:57:57.326Z,33.89
2023-04-16T12:00:24.997Z,34.53
2023-04-16T12:02:54.950Z,33.82
2023-04-16T12:05:30.424Z,33.09
2023-04-16T12:07:58.545Z,34.17
2023-04-16T12:10:25.958Z,33.78
2023-04-16T12:12:52.831Z,34.02
2023-04-16T12:15:19.730Z,33.82
2023-04-16T12:17:46.635Z,34.81
2023-04-16T12:20:17.836Z,34.51
2023-04-16T12:22:49.865Z,34.87
2023-04-16T12:25:18.347Z,35.25
2023-04-16T12:27:54.130Z,36.36
2023-04-16T12:30:24.358Z,36.36
2023-04-16T12:33:14.057Z,36.51
2023-04-16T12:35:43.537Z,36.45
2023-04-16T12:38:10.936Z,36.48
2023-04-16T12:40:38.854Z,36.36
2023-04-16T12:43:05.737Z,36.79
2023-04-16T12:45:32.574Z,37.07
2023-04-16T12:47:59.664Z,36.84
2023-04-16T12:50:26.677Z,36.55
2023-04-16T12:52:53.549Z,37.03
2023-04-16T12:55:20.440Z,36.97
2023-04-16T12:57:49.067Z,36.49
2023-04-16T13:00:16.499Z,36.36
2023-04-16T13:02:43.514Z,36.86
2023-04-16T13:05:10.591Z,38.68
2023-04-16T13:07:37.551Z,37.31
2023-04-16T13:10:06.419Z,37.18
2023-04-16T13:12:33.261Z,38.47
2023-04-16T13:15:00.207Z,37.38
2023-04-16T13:17:27.031Z,37.30
2023-04-16T13:19:53.871Z,37.11
2023-04-16T13:22:20.902Z,37.71
2023-04-16T13:24:47.825Z,37.53
2023-04-16T13:27:16.217Z,37.78
2023-04-16T13:29:43.170Z,37.58
2023-04-16T13:32:10.206Z,37.71
2023-04-16T13:34:37.263Z,39.85
2023-04-16T13:37:04.089Z,39.72
2023-04-16T13:39:31.017Z,39.38
2023-04-16T13:41:57.830Z,38.72
2023-04-16T13:44:24.697Z,38.76
2023-04-16T13:46:51.920Z,38.99
2023-04-16T13:49:19.588Z,38.60
2023-04-16T13:51:46.421Z,39.63
2023-04-16T13:54:13.687Z,38.80
2023-04-16T13:56:40.983Z,39.71
2023-04-16T13:59:08.330Z,38.25
2023-04-16T14:01:35.562Z,38.91
2023-04-16T14:04:06.770Z,38.95
2023-04-16T14:06:35.009Z,40.43
2023-04-16T14:09:02.283Z,41.19
2023-04-16T14:11:29.125Z,41.70
2023-04-16T14:13:56.272Z,45.03
2023-04-16T14:16:23.375Z,47.20
2023-04-16T14:18:52.104Z,48.68
2023-04-16T14:21:19.333Z,50.15
2023-04-16T14:23:46.205Z,51.98
2023-04-16T14:26:13.235Z,52.83
2023-04-16T14:28:41.406Z,53.54
2023-04-16T14:31:08.589Z,52.75
2023-04-16T14:33:35.504Z,53.96
2023-04-16T14:36:03.302Z,54.31
2023-04-16T14:38:31.480Z,55.12
2023-04-16T14:40:58.433Z,55.95
2023-04-16T14:43:25.286Z,55.53
2023-04-16T14:45:52.889Z,54.06
2023-04-16T14:48:19.807Z,52.76
2023-04-16T14:50:46.762Z,51.42
2023-04-16T14:53:13.982Z,52.00
2023-04-16T14:55:40.893Z,53.79
2023-04-16T14:58:07.903Z,52.61
2023-04-16T15:00:35.786Z,51.58
2023-04-16T15:03:03.060Z,50.51
2023-04-16T15:05:30.525Z,50.23
2023-04-16T15:07:57.515Z,50.47
2023-04-16T15:10:24.417Z,51.40
2023-04-16T15:12:51.313Z,51.23
2023-04-16T15:15:18.245Z,50.66
2023-04-16T15:17:45.226Z,49.33
2023-04-16T15:20:13.156Z,49.41
2023-04-16T15:22:40.373Z,49.42
2023-04-16T15:25:07.756Z,49.83
2023-04-16T15:27:34.732Z,50.46
2023-04-16T15:30:01.595Z,51.16
2023-04-16T15:32:28.648Z,51.29
2023-04-16T15:34:55.491Z,52.20
2023-04-16T15:37:22.388Z,52.42
2023-04-16T15:39:49.896Z,53.49
2023-04-16T15:42:16.788Z,53.71
2023-04-16T15:44:43.647Z,54.30
2023-04-16T15:47:10.476Z,54.67
2023-04-16T15:49:37.327Z,54.89
2023-04-16T15:52:04.404Z,56.77
2023-04-16T15:54:31.985Z,57.05
2023-04-16T15:56:59.135Z,58.03
2023-04-16T15:59:27.214Z,58.68
2023-04-16T16:01:54.330Z,59.20
2023-04-16T16:04:26.507Z,59.73
2023-04-16T16:06:53.933Z,60.22
2023-04-16T16:09:26.533Z,60.58
2023-04-16T16:11:58.514Z,60.50
2023-04-16T16:14:26.920Z,61.06
2023-04-16T16:16:53.863Z,61.90
2023-04-16T16:19:20.857Z,61.47
2023-04-16T16:21:47.637Z,61.82
2023-04-16T16:24:14.686Z,62.51
2023-04-16T16:26:41.616Z,63.01
2023-04-16T16:29:08.566Z,63.43
2023-04-16T16:31:35.657Z,63.94
2023-04-16T16:34:02.815Z,64.35
2023-04-16T16:36:29.970Z,65.23
2023-04-16T16:38:57.123Z,65.55
2023-04-16T16:41:24.014Z,65.40
2023-04-16T16:43:51.175Z,66.14
2023-04-16T16:46:18.046Z,66.06
2023-04-16T16:48:45.099Z,65.38
2023-04-16T16:51:11.944Z,65.94
2023-04-16T16:53:38.744Z,66.25
2023-04-16T16:56:05.957Z,66.90
2023-04-16T16:58:33.117Z,66.12
2023-04-16T17:01:00.069Z,65.66
2023-04-16T17:03:27.158Z,65.58
2023-04-16T17:05:56.587Z,70.10
2023-04-16T17:08:23.961Z,70.54
2023-04-16T17:10:51.242Z,74.09
2023-04-16T17:13:21.328Z,73.94
2023-04-16T17:15:48.150Z,74.36
2023-04-16T17:18:15.119Z,83.30
2023-04-16T17:20:42.024Z,80.94
2023-04-16T17:23:08.875Z,83.55
2023-04-16T17:25:35.800Z,83.41
2023-04-16T17:28:03.243Z,83.48
2023-04-16T17:30:31.375Z,87.26
2023-04-16T17:32:58.438Z,87.96
2023-04-16T17:35:25.858Z,92.36
2023-04-16T17:37:52.697Z,92.96
2023-04-16T17:40:19.627Z,93.72
2023-04-16T17:42:46.461Z,95.33
2023-04-16T17:45:13.753Z,94.41
2023-04-16T17:47:41.042Z,94.85
2023-04-16T17:50:11.605Z,96.57
2023-04-16T17:52:38.536Z,96.59
2023-04-16T17:55:06.666Z,97.85
2023-04-16T17:57:34.037Z,98.29
2023-04-16T18:00:00.821Z,96.43
2023-04-16T18:02:27.811Z,98.13
2023-04-16T18:04:54.913Z,97.55
2023-04-16T18:07:21.890Z,98.87
2023-04-16T18:09:48.849Z,99.47
2023-04-16T18:12:16.515Z,99.20
2023-04-16T18:14:44.918Z,100.00
2023-04-16T18:17:11.947Z,98.89
2023-04-16T18:19:40.655Z,98.19
2023-04-16T18:22:07.669Z,98.88
2023-04-16T18:24:36.617Z,100.00
2023-04-16T18:27:04.064Z,99.48
2023-04-16T18:29:33.902Z,100.00
2023-04-16T18:32:04.264Z,99.87
2023-04-16T18:34:31.865Z,98.74
2023-04-16T18:36:58.700Z,99.90
2023-04-16T18:39:25.855Z,98.48
2023-04-16T18:41:52.790Z,98.15
2023-04-16T18:44:20.100Z,98.97
2023-04-16T18:46:47.095Z,99.34
2023-04-16T18:49:14.142Z,100.00
2023-04-16T18:51:42.164Z,100.00
2023-04-16T18:54:09.397Z,100.00
2023-04-16T18:56:36.337Z,100.00
2023-04-16T18:59:03.240Z,100.00
2023-04-16T19:01:30.136Z,100.00
2023-04-16T19:03:57.319Z,100.00
2023-04-16T19:06:24.347Z,100.00
2023-04-16T19:08:51.386Z,100.00
2023-04-16T19:11:18.266Z,100.00
2023-04-16T19:13:45.266Z,100.00
2023-04-16T19:16:12.536Z,100.00
2023-04-16T19:18:39.538Z,100.00
2023-04-16T19:21:07.314Z,100.00
2023-04-16T19:23:34.338Z,100.00
2023-04-16T19:26:01.753Z,100.00
2023-04-16T19:28:28.895Z,100.00
2023-04-16T19:30:56.299Z,100.00
2023-04-16T19:33:23.173Z,100.00
2023-04-16T19:35:50.145Z,100.00
2023-04-16T19:38:17.167Z,100.00
2023-04-16T19:40:46.731Z,100.00
2023-04-16T19:43:14.383Z,100.00
2023-04-16T19:45:52.506Z,100.00
2023-04-16T19:48:20.583Z,100.00
2023-04-16T19:50:48.046Z,100.00
2023-04-16T19:53:17.304Z,100.00
2023-04-16T19:55:44.318Z,100.00
2023-04-16T19:58:11.265Z,100.00
2023-04-16T20:00:41.149Z,100.00
2023-04-16T20:03:08.323Z,100.00
2023-04-16T20:05:35.386Z,100.00
2023-04-16T20:08:02.333Z,100.00
2023-04-16T20:10:31.585Z,100.00
2023-04-16T20:12:58.747Z,100.00
2023-04-16T20:15:25.997Z,100.00
2023-04-16T20:17:53.504Z,100.00
2023-04-16T20:20:22.741Z,100.00
2023-04-16T20:22:49.639Z,100.00
2023-04-16T20:25:19.135Z,100.00
2023-04-16T20:27:46.371Z,100.00
2023-04-16T20:30:15.068Z,100.00
2023-04-16T20:32:41.918Z,100.00
2023-04-16T20:35:11.386Z,100.00
2023-04-16T20:37:38.814Z,100.00
2023-04-16T20:40:08.455Z,100.00
2023-04-16T20:42:35.591Z,100.00
2023-04-16T20:45:02.697Z,100.00
2023-04-16T20:47:29.597Z,100.00
2023-04-16T20:49:56.537Z,100.00
2023-04-16T20:52:23.437Z,100.00
2023-04-16T20:54:52.440Z,100.00
2023-04-16T20:57:19.417Z,100.00
2023-04-16T20:59:46.382Z,100.00
2023-04-16T21:02:14.021Z,100.00
2023-04-16T21:04:41.089Z,100.00
2023-04-16T21:07:08.079Z,100.00
2023-04-16T21:09:34.884Z,100.00
2023-04-16T21:12:01.968Z,100.00
2023-04-16T21:14:28.849Z,100.00
2023-04-16T21:16:55.718Z,100.00
2023-04-16T21:19:22.688Z,100.00
2023-04-16T21:21:49.610Z,100.00
2023-04-16T21:24:16.658Z,100.00
2023-04-16T21:26:43.459Z,100.00
2023-04-16T21:29:10.456Z,100.00
2023-04-16T21:31:37.448Z,100.00
2023-04-16T21:34:04.351Z,100.00
2023-04-16T21:36:33.196Z,100.00
2023-04-16T21:38:59.969Z,100.00
2023-04-16T21:41:26.963Z,100.00
2023-04-16T21:43:53.939Z,100.00
2023-04-16T21:46:21.478Z,100.00
2023-04-16T21:48:48.641Z,100.00
2023-04-16T21:51:15.939Z,100.00
2023-04-16T21:53:42.774Z,100.00
2023-04-16T21:56:09.694Z,100.00
2023-04-16T21:58:36.667Z,100.00
2023-04-16T22:01:03.543Z,100.00
2023-04-16T22:03:31.251Z,100.00
2023-04-16T22:06:01.259Z,100.00
2023-04-16T22:08:29.104Z,100.00
2023-04-16T22:11:01.703Z,100.00
2023-04-16T22:13:32.591Z,100.00
2023-04-16T22:16:02.716Z,100.00
2023-04-16T22:18:33.097Z,100.00
2023-04-16T22:21:00.252Z,100.00
2023-04-16T22:23:27.150Z,100.00
2023-04-16T22:25:55.535Z,100.00
2023-04-16T22:28:23.212Z,100.00
2023-04-16T22:30:50.108Z,100.00
2023-04-16T22:33:17.052Z,100.00
2023-04-16T22:35:43.937Z,100.00
2023-04-16T22:38:10.901Z,100.00
2023-04-16T22:40:37.865Z,100.00
2023-04-16T22:43:05.530Z,100.00
2023-04-16T22:45:32.367Z,100.00
2023-04-16T22:47:59.349Z,100.00
2023-04-16T22:50:26.282Z,100.00
2023-04-16T22:52:53.084Z,100.00
2023-04-16T22:55:20.033Z,100.00
2023-04-16T22:57:47.679Z,100.00
2023-04-16T23:00:18.303Z,100.00
2023-04-16T23:02:45.762Z,100.00
2023-04-16T23:05:12.697Z,100.00
2023-04-16T23:07:39.612Z,100.00
2023-04-16T23:10:08.818Z,100.00
2023-04-16T23:12:38.943Z,100.00
2023-04-16T23:15:06.967Z,100.00
2023-04-16T23:17:34.066Z,100.00
2023-04-16T23:20:01.106Z,100.00
2023-04-16T23:22:28.166Z,100.00
2023-04-16T23:24:55.092Z,100.00
2023-04-16T23:27:22.079Z,100.00
2023-04-16T23:29:49.002Z,100.00
2023-04-16T23:32:15.923Z,100.00
2023-04-16T23:34:42.775Z,100.00
2023-04-16T23:37:09.749Z,100.00
2023-04-16T23:39:36.594Z,100.00
2023-04-16T23:42:03.557Z,100.00
2023-04-16T23:44:30.773Z,100.00
2023-04-16T23:46:57.702Z,100.00
2023-04-16T23:49:25.248Z,100.00
2023-04-16T23:51:52.344Z,100.00
2023-04-16T23:54:19.486Z,100.00
2023-04-16T23:56:46.507Z,100.00
2023-04-16T23:59:13.891Z,100.00
